createdAt,value
2023-02-06T00:02:21.830Z,13.60
2023-02-06T00:04:49.612Z,12.75
2023-02-06T00:07:15.988Z,13.52
2023-02-06T00:09:42.695Z,14.70
2023-02-06T00:12:09.076Z,12.95
2023-02-06T00:14:35.480Z,12.63
2023-02-06T00:17:01.813Z,18.52
2023-02-06T00:19:28.505Z,13.05
2023-02-06T00:21:54.796Z,12.70
2023-02-06T00:24:21.348Z,13.57
2023-02-06T00:26:47.706Z,12.88
2023-02-06T00:29:14.153Z,14.63
2023-02-06T00:31:40.547Z,13.10
2023-02-06T00:34:06.863Z,12.95
2023-02-06T00:36:33.190Z,12.40
2023-02-06T00:38:59.534Z,13.85
2023-02-06T00:41:26.124Z,15.40
2023-02-06T00:43:52.635Z,13.60
2023-02-06T00:46:18.962Z,11.50
2023-02-06T00:48:45.483Z,13.55
2023-02-06T00:51:11.866Z,13.27
2023-02-06T00:53:38.280Z,13.57
2023-02-06T00:56:04.833Z,14.90
2023-02-06T00:58:31.757Z,14.50
2023-02-06T01:00:58.242Z,11.75
2023-02-06T01:03:24.692Z,12.35
2023-02-06T01:05:51.006Z,12.98
2023-02-06T01:08:17.388Z,12.77
2023-02-06T01:10:43.728Z,14.38
2023-02-06T01:13:10.148Z,13.10
2023-02-06T01:15:36.762Z,12.10
2023-02-06T01:18:03.319Z,15.80
2023-02-06T01:20:29.681Z,13.07
2023-02-06T01:22:56.119Z,11.75
2023-02-06T01:25:22.462Z,14.15
2023-02-06T01:27:49.033Z,13.90
2023-02-06T01:30:15.554Z,12.63
2023-02-06T01:32:41.976Z,13.48
2023-02-06T01:35:08.820Z,12.73
2023-02-06T01:37:35.202Z,12.32
2023-02-06T01:40:01.575Z,12.93
2023-02-06T01:42:28.821Z,10.60
2023-02-06T01:44:55.120Z,12.82
2023-02-06T01:47:21.489Z,14.32
2023-02-06T01:49:47.905Z,12.20
2023-02-06T01:52:14.266Z,12.15
2023-02-06T01:54:40.794Z,14.95
2023-02-06T01:57:07.101Z,13.23
2023-02-06T01:59:33.651Z,11.77
2023-02-06T02:02:00.010Z,11.82
2023-02-06T02:04:26.605Z,12.65
2023-02-06T02:06:52.940Z,11.73
2023-02-06T02:09:19.780Z,13.60
2023-02-06T02:11:46.314Z,12.18
2023-02-06T02:14:12.807Z,12.27
2023-02-06T02:16:39.132Z,12.45
2023-02-06T02:19:05.894Z,13.63
2023-02-06T02:21:32.492Z,12.60
2023-02-06T02:23:59.271Z,12.57
2023-02-06T02:26:25.877Z,12.73
2023-02-06T02:28:52.453Z,10.85
2023-02-06T02:31:18.846Z,12.52
2023-02-06T02:33:45.646Z,12.10
2023-02-06T02:36:12.209Z,13.43
2023-02-06T02:38:38.601Z,12.45
2023-02-06T02:41:05.277Z,12.73
2023-02-06T02:43:31.588Z,12.48
2023-02-06T02:45:58.344Z,10.15
2023-02-06T02:48:24.693Z,13.02
2023-02-06T02:50:51.053Z,11.32
2023-02-06T02:53:17.830Z,12.65
2023-02-06T02:55:44.241Z,12.73
2023-02-06T02:58:10.802Z,13.00
2023-02-06T03:00:37.163Z,12.65
2023-02-06T03:03:04.244Z,11.77
2023-02-06T03:05:30.892Z,13.20
2023-02-06T03:07:57.401Z,10.65
2023-02-06T03:10:23.775Z,12.70
2023-02-06T03:12:50.227Z,11.63
2023-02-06T03:15:17.018Z,11.45
2023-02-06T03:17:43.332Z,13.23
2023-02-06T03:20:09.649Z,11.02
2023-02-06T03:22:36.075Z,12.68
2023-02-06T03:25:02.455Z,11.88
2023-02-06T03:27:28.907Z,12.82
2023-02-06T03:29:56.313Z,14.50
2023-02-06T03:32:23.003Z,10.82
2023-02-06T03:34:49.475Z,11.48
2023-02-06T03:37:15.983Z,12.23
2023-02-06T03:39:42.506Z,13.48
2023-02-06T03:42:09.104Z,10.43
2023-02-06T03:44:35.426Z,14.13
2023-02-06T03:47:01.872Z,13.85
2023-02-06T03:49:28.322Z,12.10
2023-02-06T03:51:54.633Z,11.75
2023-02-06T03:54:20.981Z,11.27
2023-02-06T03:56:47.396Z,12.68
2023-02-06T03:59:14.118Z,11.98
2023-02-06T04:01:40.754Z,12.00
2023-02-06T04:04:07.247Z,11.38
2023-02-06T04:06:33.662Z,11.02
2023-02-06T04:09:00.086Z,11.45
2023-02-06T04:11:26.433Z,10.88
2023-02-06T04:13:52.975Z,13.07
2023-02-06T04:16:19.447Z,12.40
2023-02-06T04:18:45.861Z,12.63
2023-02-06T04:21:12.262Z,11.65
2023-02-06T04:23:38.687Z,12.90
2023-02-06T04:26:05.730Z,12.93
2023-02-06T04:28:32.158Z,11.60
2023-02-06T04:30:58.605Z,9.73
2023-02-06T04:33:25.562Z,13.00
2023-02-06T04:35:51.958Z,11.43
2023-02-06T04:40:53.952Z,10.98
2023-02-06T04:43:20.651Z,12.30
2023-02-06T04:45:47.065Z,13.00
2023-02-06T04:48:13.380Z,11.50
2023-02-06T04:50:39.725Z,10.52
2023-02-06T04:53:06.342Z,10.13
2023-02-06T04:55:32.706Z,11.90
2023-02-06T04:57:59.413Z,13.45
2023-02-06T05:00:25.745Z,12.65
2023-02-06T05:02:53.018Z,10.13
2023-02-06T05:05:19.926Z,13.15
2023-02-06T05:07:46.250Z,12.68
2023-02-06T05:10:12.528Z,12.35
2023-02-06T05:12:39.005Z,12.10
2023-02-06T05:15:05.936Z,12.05
2023-02-06T05:17:32.250Z,12.73
2023-02-06T05:19:58.997Z,11.95
2023-02-06T05:22:25.367Z,12.77
2023-02-06T05:24:51.646Z,11.63
2023-02-06T05:27:18.084Z,13.02
2023-02-06T05:29:44.431Z,12.23
2023-02-06T05:32:10.992Z,12.13
2023-02-06T05:34:37.438Z,12.02
2023-02-06T05:37:03.829Z,12.30
2023-02-06T05:39:31.152Z,13.38
2023-02-06T05:41:57.451Z,11.63
2023-02-06T05:44:23.818Z,10.93
2023-02-06T05:46:50.208Z,13.23
2023-02-06T05:49:16.528Z,13.68
2023-02-06T05:51:43.009Z,13.05
2023-02-06T05:54:09.656Z,13.55
2023-02-06T05:56:36.044Z,10.90
2023-02-06T05:59:02.408Z,13.32
2023-02-06T06:01:29.287Z,13.25
2023-02-06T06:03:55.724Z,13.82
2023-02-06T06:06:22.237Z,12.50
2023-02-06T06:08:48.639Z,12.68
2023-02-06T06:11:15.582Z,12.77
2023-02-06T06:13:41.957Z,13.13
2023-02-06T06:16:09.177Z,11.55
2023-02-06T06:18:35.516Z,13.38
2023-02-06T06:21:01.919Z,12.10
2023-02-06T06:23:28.377Z,11.75
2023-02-06T06:25:54.681Z,13.88
2023-02-06T06:28:21.149Z,12.65
2023-02-06T06:30:47.549Z,10.82
2023-02-06T06:33:13.904Z,11.00
2023-02-06T06:35:40.617Z,11.88
2023-02-06T06:38:07.467Z,11.65
2023-02-06T06:40:33.901Z,13.50
2023-02-06T06:43:00.383Z,12.65
2023-02-06T06:45:26.718Z,12.77
2023-02-06T06:47:53.662Z,14.27
2023-02-06T06:50:20.142Z,15.00
2023-02-06T06:52:46.748Z,11.55
2023-02-06T06:55:13.480Z,12.18
2023-02-06T06:57:40.044Z,12.27
2023-02-06T07:00:06.909Z,13.70
2023-02-06T07:02:33.252Z,12.10
2023-02-06T07:04:59.873Z,14.45
2023-02-06T07:07:26.548Z,15.45
2023-02-06T07:09:52.917Z,14.50
2023-02-06T07:12:19.593Z,12.02
2023-02-06T07:14:45.933Z,13.73
2023-02-06T07:17:12.450Z,11.85
2023-02-06T07:19:39.511Z,15.02
2023-02-06T07:22:05.870Z,12.90
2023-02-06T07:24:32.448Z,12.20
2023-02-06T07:26:58.802Z,11.88
2023-02-06T07:29:25.513Z,13.18
2023-02-06T07:31:51.947Z,13.27
2023-02-06T07:34:18.981Z,12.60
2023-02-06T07:36:45.276Z,13.60
2023-02-06T07:39:11.590Z,11.68
2023-02-06T07:41:37.951Z,12.75
2023-02-06T07:44:04.364Z,13.52
2023-02-06T07:46:30.696Z,13.45
2023-02-06T07:48:57.467Z,14.05
2023-02-06T07:51:23.751Z,16.40
2023-02-06T07:53:50.563Z,14.45
2023-02-06T07:56:16.972Z,16.02
2023-02-06T07:58:43.335Z,16.38
2023-02-06T08:01:09.815Z,16.00
2023-02-06T08:03:36.722Z,16.58
2023-02-06T08:06:03.373Z,16.80
2023-02-06T08:08:30.173Z,19.48
2023-02-06T08:10:56.588Z,19.95
2023-02-06T08:13:22.942Z,20.60
2023-02-06T08:15:49.902Z,18.98
2023-02-06T08:18:16.389Z,19.67
2023-02-06T08:20:42.674Z,22.67
2023-02-06T08:23:09.073Z,24.85
2023-02-06T08:25:35.851Z,28.10
2023-02-06T08:28:03.209Z,25.02
2023-02-06T08:30:30.048Z,53.40
2023-02-06T08:33:04.645Z,38.88
2023-02-06T08:35:31.161Z,41.92
2023-02-06T08:37:57.696Z,39.85
2023-02-06T08:40:24.463Z,42.00
2023-02-06T08:42:51.346Z,40.05
2023-02-06T08:45:17.724Z,38.85
2023-02-06T08:47:44.142Z,45.58
2023-02-06T08:50:10.619Z,45.13
2023-02-06T08:52:37.102Z,48.20
2023-02-06T08:55:03.478Z,44.85
2023-02-06T08:57:29.806Z,39.60
2023-02-06T08:59:56.391Z,42.05
2023-02-06T09:02:22.776Z,43.13
2023-02-06T09:04:49.282Z,39.25
2023-02-06T09:07:17.346Z,39.15
2023-02-06T09:09:43.902Z,41.63
2023-02-06T09:12:10.360Z,46.30
2023-02-06T09:14:37.253Z,39.33
2023-02-06T09:17:03.812Z,47.25
2023-02-06T09:19:30.391Z,47.47
2023-02-06T09:21:57.199Z,54.40
2023-02-06T09:24:23.968Z,50.00
2023-02-06T09:26:59.340Z,54.72
2023-02-06T09:29:27.333Z,51.15
2023-02-06T09:31:54.084Z,61.00
2023-02-06T09:34:20.814Z,77.10
2023-02-06T09:36:47.334Z,80.35
2023-02-06T09:39:13.909Z,70.68
2023-02-06T09:41:40.774Z,66.93
2023-02-06T09:44:08.160Z,70.05
2023-02-06T09:46:34.864Z,66.13
2023-02-06T09:49:01.591Z,61.92
2023-02-06T09:51:28.013Z,62.63
2023-02-06T09:53:54.672Z,57.95
2023-02-06T09:56:21.029Z,60.28
2023-02-06T09:58:47.537Z,80.38
2023-02-06T10:01:14.232Z,94.93
2023-02-06T10:03:40.909Z,103.72
2023-02-06T10:06:07.474Z,107.60
2023-02-06T10:08:34.583Z,101.32
2023-02-06T10:11:01.404Z,100.15
2023-02-06T10:13:27.903Z,106.30
2023-02-06T10:15:54.557Z,100.82
2023-02-06T10:18:21.722Z,112.50
2023-02-06T10:20:48.414Z,108.00
2023-02-06T10:23:15.045Z,102.32
2023-02-06T10:25:41.523Z,97.55
2023-02-06T10:28:08.321Z,100.82
2023-02-06T10:30:35.119Z,91.97
2023-02-06T10:33:01.862Z,92.93
2023-02-06T10:35:28.633Z,85.32
2023-02-06T10:37:55.450Z,86.88
2023-02-06T10:40:21.917Z,81.55
2023-02-06T10:42:48.592Z,89.22
2023-02-06T10:45:20.166Z,86.25
2023-02-06T10:47:47.528Z,79.05
2023-02-06T10:50:14.134Z,83.72
2023-02-06T10:52:41.259Z,79.05
2023-02-06T10:55:07.844Z,80.35
2023-02-06T10:57:34.390Z,82.50
2023-02-06T11:00:01.023Z,148.40
2023-02-06T11:02:28.206Z,78.88
2023-02-06T11:04:54.989Z,77.35
2023-02-06T11:07:21.462Z,74.57
2023-02-06T11:09:48.298Z,76.90
2023-02-06T11:12:14.712Z,71.88
2023-02-06T11:14:41.200Z,71.65
2023-02-06T11:17:08.288Z,71.20
2023-02-06T11:19:34.731Z,67.78
2023-02-06T11:22:01.401Z,75.38
2023-02-06T11:24:27.829Z,75.10
2023-02-06T11:26:54.221Z,67.70
2023-02-06T11:29:20.799Z,65.20
2023-02-06T11:31:47.629Z,67.63
2023-02-06T11:34:14.068Z,66.07
2023-02-06T11:36:40.713Z,60.83
2023-02-06T11:39:07.696Z,61.53
2023-02-06T11:41:34.170Z,62.80
2023-02-06T11:44:00.622Z,65.32
2023-02-06T11:46:27.431Z,59.08
2023-02-06T11:48:53.821Z,60.92
2023-02-06T11:51:20.344Z,56.00
2023-02-06T11:53:46.759Z,54.13
2023-02-06T11:56:13.463Z,54.30
2023-02-06T11:58:40.015Z,59.47
2023-02-06T12:01:06.748Z,56.35
2023-02-06T12:03:33.712Z,54.75
2023-02-06T12:06:02.864Z,52.88
2023-02-06T12:08:29.975Z,50.35
2023-02-06T12:10:56.470Z,50.33
2023-02-06T12:13:23.400Z,54.28
2023-02-06T12:16:05.527Z,50.72
2023-02-06T12:18:31.896Z,54.28
2023-02-06T12:20:58.325Z,50.88
2023-02-06T12:23:24.672Z,48.78
2023-02-06T12:25:51.140Z,46.50
2023-02-06T12:28:17.481Z,50.22
2023-02-06T12:30:44.301Z,49.08
2023-02-06T12:33:10.741Z,49.20
2023-02-06T12:35:37.705Z,46.70
2023-02-06T12:38:04.337Z,44.58
2023-02-06T12:40:30.645Z,41.60
2023-02-06T12:42:57.244Z,44.67
2023-02-06T12:45:23.673Z,46.45
2023-02-06T12:47:50.045Z,41.25
2023-02-06T12:50:16.400Z,46.50
2023-02-06T12:52:42.702Z,45.53
2023-02-06T12:55:09.072Z,45.13
2023-02-06T12:57:35.395Z,41.67
2023-02-06T13:00:01.786Z,39.67
2023-02-06T13:02:28.340Z,44.08
2023-02-06T13:04:54.774Z,44.13
2023-02-06T13:07:21.194Z,38.72
2023-02-06T13:09:47.639Z,42.70
2023-02-06T13:12:14.011Z,41.28
2023-02-06T13:14:40.479Z,43.25
2023-02-06T13:17:06.826Z,40.03
2023-02-06T13:19:33.918Z,38.78
2023-02-06T13:22:00.204Z,39.67
2023-02-06T13:24:27.382Z,42.13
2023-02-06T13:26:53.713Z,38.53
2023-02-06T13:29:20.034Z,33.65
2023-02-06T13:31:46.519Z,39.17
2023-02-06T13:34:13.247Z,35.38
2023-02-06T13:36:39.661Z,36.70
2023-02-06T13:39:05.997Z,33.90
2023-02-06T13:41:32.607Z,35.53
2023-02-06T13:43:59.053Z,36.20
2023-02-06T13:46:25.657Z,35.03
2023-02-06T13:48:52.255Z,36.15
2023-02-06T13:51:19.062Z,34.10
2023-02-06T13:53:45.496Z,35.97
2023-02-06T13:56:12.106Z,34.53
2023-02-06T13:58:38.697Z,32.83
2023-02-06T14:01:05.784Z,34.30
2023-02-06T14:03:32.398Z,31.33
2023-02-06T14:05:58.830Z,30.80
2023-02-06T14:08:25.716Z,30.45
2023-02-06T14:10:52.079Z,30.25
2023-02-06T14:15:55.681Z,30.00
2023-02-06T14:18:22.164Z,31.95
2023-02-06T14:20:49.180Z,28.88
2023-02-06T14:23:15.624Z,31.92
2023-02-06T14:25:42.597Z,28.83
2023-02-06T14:28:09.265Z,30.05
2023-02-06T14:30:36.201Z,29.15
2023-02-06T14:33:02.975Z,29.52
2023-02-06T14:35:29.379Z,28.98
2023-02-06T14:37:55.867Z,27.88
2023-02-06T14:40:22.336Z,26.88
2023-02-06T14:42:49.296Z,27.38
2023-02-06T14:45:15.789Z,27.20
2023-02-06T14:47:42.623Z,27.77
2023-02-06T14:50:09.274Z,25.58
2023-02-06T14:52:35.757Z,25.23
2023-02-06T14:55:02.476Z,26.45
2023-02-06T14:57:29.323Z,26.92
2023-02-06T14:59:55.710Z,24.42
2023-02-06T15:02:22.333Z,25.40
2023-02-06T15:04:48.976Z,29.10
2023-02-06T15:07:15.427Z,23.83
2023-02-06T15:09:41.841Z,24.60
2023-02-06T15:12:08.266Z,25.88
2023-02-06T15:14:34.671Z,26.15
2023-02-06T15:17:01.750Z,25.90
2023-02-06T15:19:28.108Z,26.10
2023-02-06T15:21:54.783Z,22.38
2023-02-06T15:24:21.560Z,24.77
2023-02-06T15:26:47.961Z,25.63
2023-02-06T15:29:14.455Z,24.17
2023-02-06T15:31:41.034Z,25.85
2023-02-06T15:34:07.520Z,22.92
2023-02-06T15:36:33.857Z,23.52
2023-02-06T15:39:00.250Z,21.73
2023-02-06T15:41:26.594Z,23.60
2023-02-06T15:43:53.101Z,21.20
2023-02-06T15:46:19.616Z,24.15
2023-02-06T15:48:46.061Z,24.08
2023-02-06T15:51:12.637Z,23.67
2023-02-06T15:53:39.492Z,22.98
2023-02-06T15:56:05.920Z,23.15
2023-02-06T15:58:32.234Z,26.27
2023-02-06T16:01:02.059Z,20.13
2023-02-06T16:03:28.656Z,21.83
2023-02-06T16:05:55.477Z,20.95
2023-02-06T16:08:21.906Z,21.98
2023-02-06T16:10:48.281Z,19.55
2023-02-06T16:13:14.753Z,20.70
2023-02-06T16:15:41.109Z,23.40
2023-02-06T16:18:07.438Z,20.60
2023-02-06T16:20:33.867Z,20.25
2023-02-06T16:23:00.580Z,21.05
2023-02-06T16:25:26.970Z,21.15
2023-02-06T16:27:53.572Z,19.50
2023-02-06T16:30:20.210Z,18.17
2023-02-06T16:32:46.849Z,22.50
2023-02-06T16:35:13.216Z,19.02
2023-02-06T16:37:39.713Z,20.40
2023-02-06T16:40:06.063Z,20.35
2023-02-06T16:42:32.808Z,20.42
2023-02-06T16:44:59.716Z,19.77
2023-02-06T16:47:26.111Z,20.05
2023-02-06T16:49:52.663Z,20.65
2023-02-06T16:52:19.449Z,21.00
2023-02-06T16:54:45.905Z,19.13
2023-02-06T16:57:12.746Z,20.55
2023-02-06T16:59:39.123Z,18.63
2023-02-06T17:02:05.477Z,20.35
2023-02-06T17:04:31.837Z,18.50
2023-02-06T17:06:58.274Z,19.15
2023-02-06T17:09:24.632Z,19.98
2023-02-06T17:11:51.539Z,19.23
2023-02-06T17:14:17.858Z,19.75
2023-02-06T17:16:44.260Z,19.63
2023-02-06T17:19:10.680Z,19.25
2023-02-06T17:21:37.562Z,19.70
2023-02-06T17:24:04.295Z,19.50
2023-02-06T17:26:31.095Z,18.85
2023-02-06T17:28:57.575Z,20.58
2023-02-06T17:31:24.170Z,19.00
2023-02-06T17:33:50.709Z,21.75
2023-02-06T17:36:17.715Z,20.65
2023-02-06T17:38:44.179Z,18.85
2023-02-06T17:41:10.547Z,17.73
2023-02-06T17:43:37.299Z,20.98
2023-02-06T17:46:03.665Z,19.88
2023-02-06T17:48:30.507Z,17.73
2023-02-06T17:50:57.057Z,18.75
2023-02-06T17:53:23.518Z,18.98
2023-02-06T17:55:50.162Z,20.10
2023-02-06T17:58:16.700Z,18.90
2023-02-06T18:00:43.147Z,20.92
2023-02-06T18:03:09.698Z,18.27
2023-02-06T18:05:36.619Z,18.95
2023-02-06T18:08:03.465Z,19.55
2023-02-06T18:10:29.980Z,19.45
2023-02-06T18:12:56.350Z,19.02
2023-02-06T18:15:22.812Z,20.17
2023-02-06T18:17:49.624Z,16.88
2023-02-06T18:20:16.051Z,18.00
2023-02-06T18:22:42.633Z,17.63
2023-02-06T18:25:08.968Z,19.45
2023-02-06T18:27:35.590Z,21.00
2023-02-06T18:30:01.988Z,20.33
2023-02-06T18:32:28.494Z,19.52
2023-02-06T18:34:54.894Z,18.02
2023-02-06T18:37:21.259Z,19.65
2023-02-06T18:39:48.167Z,18.83
2023-02-06T18:42:15.182Z,17.77
2023-02-06T18:44:41.688Z,17.00
2023-02-06T18:47:08.085Z,16.15
2023-02-06T18:49:34.505Z,18.42
2023-02-06T18:52:01.046Z,18.23
2023-02-06T18:54:27.497Z,18.45
2023-02-06T18:56:54.091Z,16.95
2023-02-06T18:59:20.667Z,18.48
2023-02-06T19:01:47.142Z,17.60
2023-02-06T19:04:13.644Z,18.92
2023-02-06T19:06:40.087Z,17.63
2023-02-06T19:09:07.285Z,16.48
2023-02-06T19:11:33.783Z,17.80
2023-02-06T19:14:00.165Z,16.60
2023-02-06T19:16:26.651Z,16.75
2023-02-06T19:18:53.235Z,18.05
2023-02-06T19:21:19.637Z,18.85
2023-02-06T19:23:46.298Z,16.50
2023-02-06T19:26:13.148Z,18.30
2023-02-06T19:28:39.806Z,16.92
2023-02-06T19:31:06.298Z,15.73
2023-02-06T19:33:33.172Z,16.23
2023-02-06T19:35:59.506Z,17.13
2023-02-06T19:38:25.950Z,16.92
2023-02-06T19:40:52.387Z,16.30
2023-02-06T19:43:18.792Z,16.02
2023-02-06T19:45:45.573Z,18.65
2023-02-06T19:48:12.147Z,15.90
2023-02-06T19:50:38.976Z,16.65
2023-02-06T19:53:05.936Z,17.23
2023-02-06T19:55:32.481Z,14.60
2023-02-06T19:57:58.932Z,17.38
2023-02-06T20:00:25.743Z,16.40
2023-02-06T20:02:52.218Z,18.10
2023-02-06T20:05:18.830Z,17.63
2023-02-06T20:07:45.386Z,17.95
2023-02-06T20:10:12.086Z,17.65
2023-02-06T20:12:39.035Z,18.25
2023-02-06T20:15:05.834Z,19.17
2023-02-06T20:17:32.783Z,16.02
2023-02-06T20:19:59.123Z,15.95
2023-02-06T20:22:25.797Z,16.90
2023-02-06T20:24:52.176Z,16.55
2023-02-06T20:27:19.318Z,16.08
2023-02-06T20:29:45.811Z,15.52
2023-02-06T20:32:12.252Z,15.77
2023-02-06T20:34:38.718Z,15.95
2023-02-06T20:37:05.165Z,16.92
2023-02-06T20:39:31.722Z,15.88
2023-02-06T20:41:58.263Z,18.88
2023-02-06T20:44:25.408Z,15.82
2023-02-06T20:46:52.341Z,14.70
2023-02-06T20:49:18.823Z,15.55
2023-02-06T20:51:45.549Z,15.20
2023-02-06T20:54:12.005Z,15.60
2023-02-06T20:56:38.566Z,13.85
2023-02-06T20:59:06.389Z,16.65
2023-02-06T21:01:33.841Z,14.40
2023-02-06T21:04:01.731Z,17.33
2023-02-06T21:06:28.149Z,14.82
2023-02-06T21:08:54.545Z,20.15
2023-02-06T21:11:21.032Z,15.40
2023-02-06T21:13:47.544Z,18.00
2023-02-06T21:16:14.391Z,16.77
2023-02-06T21:18:41.197Z,17.83
2023-02-06T21:21:07.594Z,15.93
2023-02-06T21:23:34.043Z,17.25
2023-02-06T21:26:00.440Z,16.85
2023-02-06T21:28:27.594Z,17.15
2023-02-06T21:30:54.176Z,17.48
2023-02-06T21:33:21.074Z,16.63
2023-02-06T21:35:47.473Z,18.17
2023-02-06T21:38:14.137Z,17.95
2023-02-06T21:40:41.026Z,16.45
2023-02-06T21:43:07.896Z,16.70
2023-02-06T21:45:34.321Z,18.02
2023-02-06T21:48:01.161Z,18.63
2023-02-06T21:50:27.676Z,16.67
2023-02-06T21:52:54.207Z,17.25
2023-02-06T21:55:20.663Z,17.02
2023-02-06T21:57:47.489Z,15.57
2023-02-06T22:00:14.095Z,17.70
2023-02-06T22:02:40.838Z,16.80
2023-02-06T22:05:07.624Z,15.23
2023-02-06T22:07:34.545Z,15.75
2023-02-06T22:10:01.352Z,18.35
2023-02-06T22:12:27.990Z,18.00
2023-02-06T22:14:54.388Z,18.10
2023-02-06T22:17:21.048Z,17.33
2023-02-06T22:19:47.393Z,18.08
2023-02-06T22:22:13.832Z,17.13
2023-02-06T22:24:40.290Z,18.08
2023-02-06T22:27:06.932Z,16.95
2023-02-06T22:29:33.385Z,18.38
2023-02-06T22:31:59.896Z,16.65
2023-02-06T22:34:26.283Z,17.10
2023-02-06T22:36:52.650Z,17.42
2023-02-06T22:39:19.885Z,18.70
2023-02-06T22:41:46.343Z,17.65
2023-02-06T22:44:13.404Z,15.50
2023-02-06T22:46:40.278Z,16.58
2023-02-06T22:49:06.966Z,17.38
2023-02-06T22:51:34.116Z,19.70
2023-02-06T22:54:00.766Z,18.33
2023-02-06T22:56:27.326Z,15.40
2023-02-06T22:58:53.769Z,16.25
2023-02-06T23:01:20.208Z,20.25
2023-02-06T23:03:47.390Z,17.55
2023-02-06T23:06:14.323Z,16.23
2023-02-06T23:08:41.136Z,18.77
2023-02-06T23:11:07.838Z,17.77
2023-02-06T23:13:34.280Z,18.92
2023-02-06T23:16:00.829Z,17.08
2023-02-06T23:18:27.791Z,16.40
2023-02-06T23:20:54.799Z,14.45
2023-02-06T23:23:21.244Z,15.77
2023-02-06T23:25:47.646Z,18.80
2023-02-06T23:28:14.122Z,19.83
2023-02-06T23:30:40.588Z,18.55
2023-02-06T23:33:07.093Z,16.73
2023-02-06T23:35:34.149Z,17.85
2023-02-06T23:38:00.639Z,18.38
2023-02-06T23:40:27.384Z,17.50
2023-02-06T23:42:53.840Z,17.38
2023-02-06T23:45:20.263Z,15.68
2023-02-06T23:47:47.416Z,16.45
2023-02-06T23:50:13.935Z,17.73
2023-02-06T23:52:40.533Z,16.90
2023-02-06T23:55:07.734Z,17.30
2023-02-06T23:57:34.175Z,16.70
